createdAt,value
2022-09-06T00:00:29.685Z,101588.75
2022-09-06T00:02:58.368Z,101586.25
2022-09-06T00:05:26.246Z,101582.09
2022-09-06T00:07:54.200Z,101584.28
2022-09-06T00:10:22.055Z,101581.75
2022-09-06T00:12:49.913Z,101582.09
2022-09-06T00:15:18.181Z,101579.41
2022-09-06T00:17:46.005Z,101578.44
2022-09-06T00:20:16.842Z,101583.59
2022-09-06T00:22:44.670Z,101590.94
2022-09-06T00:25:12.420Z,101583.09
2022-09-06T00:27:40.302Z,101594.13
2022-09-06T00:30:08.783Z,101591.44
2022-09-06T00:32:36.802Z,101585.44
2022-09-06T00:35:06.488Z,101585.63
2022-09-06T00:37:34.538Z,101588.09
2022-09-06T00:40:02.461Z,101587.09
2022-09-06T00:42:30.423Z,101583.44
2022-09-06T00:45:00.216Z,101582.44
2022-09-06T00:47:29.316Z,101585.28
2022-09-06T00:50:00.138Z,101577.41
2022-09-06T00:52:29.497Z,101579.25
2022-09-06T00:54:57.742Z,101581.25
2022-09-06T00:57:27.394Z,101579.75
2022-09-06T01:00:00.057Z,101585.28
2022-09-06T01:02:28.311Z,101578.44
2022-09-06T01:04:56.908Z,101584.09
2022-09-06T01:07:42.058Z,101585.94
2022-09-06T01:10:28.821Z,101583.59
2022-09-06T01:13:37.926Z,101584.94
2022-09-06T01:16:12.099Z,101582.59
2022-09-06T01:19:00.074Z,101585.25
2022-09-06T01:21:49.481Z,101579.91
2022-09-06T01:24:51.522Z,101586.59
2022-09-06T01:27:34.497Z,101573.09
2022-09-06T01:30:09.345Z,101580.41
2022-09-06T01:33:13.837Z,101571.72
2022-09-06T01:35:53.409Z,101579.25
2022-09-06T01:38:21.799Z,101574.09
2022-09-06T01:40:49.552Z,101575.91
2022-09-06T01:43:31.493Z,101581.41
2022-09-06T01:46:40.595Z,101569.41
2022-09-06T01:49:26.586Z,101579.72
2022-09-06T01:52:14.932Z,101576.56
2022-09-06T01:55:07.940Z,101575.72
2022-09-06T01:57:50.514Z,101575.06
2022-09-06T02:00:20.708Z,101575.19
2022-09-06T02:03:14.909Z,101569.16
2022-09-06T02:05:54.374Z,101569.00
2022-09-06T02:08:34.121Z,101575.50
2022-09-06T02:11:04.894Z,101574.81
2022-09-06T02:13:39.932Z,101578.50
2022-09-06T02:16:12.583Z,101584.84
2022-09-06T02:18:47.955Z,101578.00
2022-09-06T02:21:24.559Z,101575.81
2022-09-06T02:23:55.763Z,101584.81
2022-09-06T02:26:28.883Z,101588.63
2022-09-06T02:28:57.864Z,101591.13
2022-09-06T02:31:32.091Z,101580.09
2022-09-06T02:34:01.019Z,101584.56
2022-09-06T02:36:31.366Z,101586.41
2022-09-06T02:39:02.332Z,101594.72
2022-09-06T02:41:31.214Z,101591.88
2022-09-06T02:43:59.051Z,101591.03
2022-09-06T02:46:27.249Z,101593.84
2022-09-06T02:48:55.082Z,101587.84
2022-09-06T02:51:22.971Z,101597.34
2022-09-06T02:53:50.925Z,101594.38
2022-09-06T02:56:18.753Z,101588.88
2022-09-06T02:58:46.541Z,101583.56
2022-09-06T03:01:14.506Z,101581.22
2022-09-06T03:03:42.563Z,101582.53
2022-09-06T03:06:10.458Z,101580.06
2022-09-06T03:08:38.340Z,101574.22
2022-09-06T03:11:06.297Z,101580.94
2022-09-06T03:13:34.270Z,101572.44
2022-09-06T03:16:02.273Z,101573.09
2022-09-06T03:18:30.862Z,101568.28
2022-09-06T03:20:59.791Z,101563.44
2022-09-06T03:23:29.172Z,101564.97
2022-09-06T03:25:57.764Z,101577.81
2022-09-06T03:28:26.148Z,101572.47
2022-09-06T03:30:54.170Z,101579.97
2022-09-06T03:33:22.124Z,101576.00
2022-09-06T03:35:52.460Z,101575.34
2022-09-06T03:38:21.183Z,101570.38
2022-09-06T03:40:49.980Z,101573.88
2022-09-06T03:43:18.816Z,101578.06
2022-09-06T03:45:52.387Z,101581.56
2022-09-06T03:48:22.353Z,101586.59
2022-09-06T03:50:52.930Z,101579.94
2022-09-06T03:53:21.726Z,101581.41
2022-09-06T03:55:52.208Z,101578.41
2022-09-06T03:58:22.287Z,101571.91
2022-09-06T04:00:59.822Z,101568.25
2022-09-06T04:03:27.882Z,101566.41
2022-09-06T04:05:55.931Z,101573.75
2022-09-06T04:08:23.796Z,101567.09
2022-09-06T04:10:55.064Z,101565.25
2022-09-06T04:13:23.916Z,101567.91
2022-09-06T04:15:52.882Z,101558.06
2022-09-06T04:18:22.407Z,101562.56
2022-09-06T04:20:52.005Z,101557.91
2022-09-06T04:23:21.187Z,101564.09
2022-09-06T04:25:55.461Z,101561.56
2022-09-06T04:28:24.761Z,101558.56
2022-09-06T04:30:54.306Z,101560.06
2022-09-06T04:33:26.267Z,101559.91
2022-09-06T04:35:57.152Z,101570.75
2022-09-06T04:38:26.197Z,101567.41
2022-09-06T04:40:55.772Z,101569.25
2022-09-06T04:43:25.744Z,101567.09
2022-09-06T04:45:53.590Z,101573.56
2022-09-06T04:48:21.601Z,101575.28
2022-09-06T04:50:49.369Z,101571.75
2022-09-06T04:53:17.223Z,101573.72
2022-09-06T04:55:44.870Z,101576.06
2022-09-06T04:58:13.647Z,101576.59
2022-09-06T05:00:45.294Z,101576.91
2022-09-06T05:03:13.492Z,101575.09
2022-09-06T05:05:41.447Z,101573.41
2022-09-06T05:08:09.483Z,101570.72
2022-09-06T05:10:37.665Z,101571.75
2022-09-06T05:13:05.722Z,101576.56
2022-09-06T05:15:34.040Z,101570.72
2022-09-06T05:18:04.312Z,101569.38
2022-09-06T05:20:32.582Z,101571.69
2022-09-06T05:23:01.941Z,101573.88
2022-09-06T05:25:31.467Z,101571.34
2022-09-06T05:27:59.230Z,101570.03
2022-09-06T05:30:27.324Z,101571.81
2022-09-06T05:32:55.004Z,101567.13
2022-09-06T05:35:22.780Z,101568.94
2022-09-06T05:37:50.625Z,101566.44
2022-09-06T05:40:18.493Z,101563.22
2022-09-06T05:42:46.462Z,101569.34
2022-09-06T05:45:14.583Z,101563.63
2022-09-06T05:47:42.357Z,101565.88
2022-09-06T05:50:11.072Z,101567.31
2022-09-06T05:52:39.974Z,101569.59
2022-09-06T05:55:08.732Z,101567.50
2022-09-06T05:57:36.570Z,101562.78
2022-09-06T06:00:31.247Z,101574.16
2022-09-06T06:03:02.500Z,101571.28
2022-09-06T06:05:31.764Z,101566.69
2022-09-06T06:07:59.952Z,101560.78
2022-09-06T06:10:28.578Z,101562.00
2022-09-06T06:12:57.917Z,101566.91
2022-09-06T06:15:25.885Z,101563.13
2022-09-06T06:17:53.902Z,101560.00
2022-09-06T06:20:21.902Z,101565.75
2022-09-06T06:22:49.731Z,101568.13
2022-09-06T06:25:22.607Z,101567.22
2022-09-06T06:27:50.718Z,101571.47
2022-09-06T06:30:18.791Z,101566.47
2022-09-06T06:32:46.720Z,101569.88
2022-09-06T06:35:40.308Z,101574.56
2022-09-06T06:38:33.975Z,101575.94
2022-09-06T06:41:06.439Z,101570.47
2022-09-06T06:43:38.794Z,101563.56
2022-09-06T06:46:13.814Z,101567.81
2022-09-06T06:48:44.162Z,101568.78
2022-09-06T06:51:14.587Z,101562.69
2022-09-06T06:53:43.905Z,101570.44
2022-09-06T06:56:20.533Z,101580.22
2022-09-06T06:58:50.677Z,101574.72
2022-09-06T07:01:21.531Z,101584.09
2022-09-06T07:03:50.047Z,101583.53
2022-09-06T07:06:19.137Z,101592.94
2022-09-06T07:08:47.935Z,101584.09
2022-09-06T07:11:20.488Z,101585.41
2022-09-06T07:14:18.149Z,101587.31
2022-09-06T07:16:46.543Z,101595.91
2022-09-06T07:22:04.629Z,101588.94
2022-09-06T07:24:34.107Z,101586.50
2022-09-06T07:29:53.616Z,101587.38
2022-09-06T07:32:23.928Z,101589.44
2022-09-06T07:34:51.931Z,101582.00
2022-09-06T07:37:20.027Z,101591.34
2022-09-06T07:39:51.631Z,101584.50
2022-09-06T07:42:20.115Z,101584.72
2022-09-06T07:44:48.120Z,101583.72
2022-09-06T07:53:13.081Z,101579.13
2022-09-06T07:55:47.753Z,101580.78
2022-09-06T07:58:16.111Z,101578.50
2022-09-06T08:00:44.609Z,101579.34
2022-09-06T08:03:12.697Z,101581.19
2022-09-06T08:11:44.967Z,101585.91
2022-09-06T08:14:12.837Z,101574.44
2022-09-06T08:16:40.752Z,101584.81
2022-09-06T08:19:09.103Z,101573.16
2022-09-06T08:21:36.949Z,101576.69
2022-09-06T08:24:07.255Z,101578.97
2022-09-06T08:26:39.674Z,101582.31
2022-09-06T08:29:09.191Z,101578.97
2022-09-06T08:31:41.442Z,101576.03
2022-09-06T08:34:13.051Z,101578.31
2022-09-06T08:36:42.420Z,101578.72
2022-09-06T08:39:10.915Z,101569.13
2022-09-06T08:41:51.789Z,101575.19
2022-09-06T08:44:58.557Z,101573.69
2022-09-06T08:47:53.185Z,101567.63
2022-09-06T08:50:22.124Z,101555.16
2022-09-06T08:53:16.171Z,101555.75
2022-09-06T08:56:12.029Z,101549.72
2022-09-06T08:59:01.152Z,101554.09
2022-09-06T09:01:36.291Z,101553.84
2022-09-06T09:04:07.495Z,101547.59
2022-09-06T09:06:36.082Z,101553.13
2022-09-06T09:09:07.206Z,101549.19
2022-09-06T09:11:36.327Z,101537.75
2022-09-06T09:14:18.985Z,101537.75
2022-09-06T09:16:51.621Z,101529.44
2022-09-06T09:19:19.607Z,101535.28
2022-09-06T09:21:47.924Z,101526.97
2022-09-06T09:24:16.333Z,101525.97
2022-09-06T09:26:58.405Z,101527.75
2022-09-06T09:29:29.513Z,101536.69
2022-09-06T09:31:58.408Z,101521.28
2022-09-06T09:34:34.082Z,101516.94
2022-09-06T09:40:34.323Z,101514.19
2022-09-06T09:43:15.422Z,101510.69
2022-09-06T09:45:44.903Z,101506.91
2022-09-06T09:48:25.915Z,101505.22
2022-09-06T09:50:59.293Z,101498.75
2022-09-06T09:53:31.845Z,101500.59
2022-09-06T09:56:03.749Z,101502.78
2022-09-06T09:58:35.934Z,101495.25
2022-09-06T10:01:31.202Z,101498.25
2022-09-06T10:07:18.467Z,101487.88
2022-09-06T10:10:21.266Z,101483.69
2022-09-06T10:12:49.355Z,101473.44
2022-09-06T10:15:37.987Z,101476.69
2022-09-06T10:18:06.392Z,101469.25
2022-09-06T10:20:50.544Z,101464.84
2022-09-06T10:26:38.792Z,101455.19
2022-09-06T10:29:10.245Z,101460.78
2022-09-06T10:32:02.742Z,101455.09
2022-09-06T10:35:03.622Z,101458.50
2022-09-06T10:37:56.114Z,101457.72
2022-09-06T10:40:57.160Z,101458.03
2022-09-06T10:43:33.533Z,101461.28
2022-09-06T10:46:15.018Z,101453.09
2022-09-06T10:48:46.554Z,101451.66
2022-09-06T10:51:21.371Z,101446.25
2022-09-06T10:53:52.242Z,101448.75
2022-09-06T10:56:52.106Z,101444.41
2022-09-06T11:02:16.922Z,101434.34
2022-09-06T11:10:45.729Z,101423.97
2022-09-06T11:13:18.817Z,101423.31
2022-09-06T11:16:13.546Z,101417.75
2022-09-06T11:18:47.365Z,101419.38
2022-09-06T11:21:27.314Z,101421.94
2022-09-06T11:24:10.079Z,101419.19
2022-09-06T11:27:12.137Z,101414.22
2022-09-06T11:29:44.035Z,101415.28
2022-09-06T11:32:33.576Z,101409.56
2022-09-06T11:35:07.930Z,101403.47
2022-09-06T11:37:44.014Z,101403.91
2022-09-06T11:42:53.306Z,101407.06
2022-09-06T11:45:40.576Z,101392.81
2022-09-06T11:48:24.271Z,101386.41
2022-09-06T11:51:06.906Z,101381.63
2022-09-06T11:53:55.967Z,101378.25
2022-09-06T11:56:32.535Z,101385.59
2022-09-06T11:59:36.195Z,101379.41
2022-09-06T12:02:29.160Z,101372.28
2022-09-06T12:05:05.507Z,101368.66
2022-09-06T12:08:03.700Z,101367.22
2022-09-06T12:10:46.409Z,101359.72
2022-09-06T12:13:44.341Z,101366.66
2022-09-06T12:16:19.228Z,101369.34
2022-09-06T12:18:49.476Z,101361.69
2022-09-06T12:21:38.021Z,101356.84
2022-09-06T12:24:11.157Z,101351.84
2022-09-06T12:27:16.443Z,101348.50
2022-09-06T12:30:03.194Z,101350.81
2022-09-06T12:32:37.462Z,101348.50
2022-09-06T12:38:19.344Z,101333.66
2022-09-06T12:41:01.265Z,101332.38
2022-09-06T12:43:37.424Z,101334.97
2022-09-06T12:46:11.225Z,101326.31
2022-09-06T12:48:45.963Z,101334.13
2022-09-06T12:51:31.166Z,101326.22
2022-09-06T12:54:09.123Z,101324.56
2022-09-06T12:56:48.415Z,101317.94
2022-09-06T12:59:32.009Z,101320.09
2022-09-06T13:02:24.750Z,101317.94
2022-09-06T13:05:13.245Z,101315.03
2022-09-06T13:07:51.129Z,101314.78
2022-09-06T13:10:28.534Z,101317.13
2022-09-06T13:13:05.485Z,101315.25
2022-09-06T13:15:41.569Z,101310.91
2022-09-06T13:18:38.526Z,101315.63
2022-09-06T13:21:17.828Z,101317.88
2022-09-06T13:23:53.679Z,101309.53
2022-09-06T13:26:39.245Z,101313.97
2022-09-06T13:29:31.698Z,101313.38
2022-09-06T13:32:12.375Z,101316.31
2022-09-06T13:34:57.458Z,101319.00
2022-09-06T13:37:40.871Z,101314.28
2022-09-06T13:41:00.025Z,101310.03
2022-09-06T13:43:40.223Z,101308.59
2022-09-06T13:46:10.911Z,101311.91
2022-09-06T13:48:44.904Z,101313.34
2022-09-06T13:51:13.228Z,101305.22
2022-09-06T13:53:41.241Z,101301.44
2022-09-06T13:56:10.608Z,101299.34
2022-09-06T13:58:38.965Z,101295.13
2022-09-06T14:01:08.902Z,101294.97
2022-09-06T14:03:40.666Z,101292.50
2022-09-06T14:06:09.990Z,101285.44
2022-09-06T14:11:33.392Z,101279.81
2022-09-06T14:14:01.167Z,101279.56
2022-09-06T14:16:54.682Z,101277.63
2022-09-06T14:19:47.164Z,101271.97
2022-09-06T14:25:45.075Z,101277.09
2022-09-06T14:28:13.456Z,101283.50
2022-09-06T14:30:41.559Z,101276.25
2022-09-06T14:33:09.502Z,101272.63
2022-09-06T14:35:37.963Z,101267.38
2022-09-06T14:38:06.049Z,101272.91
2022-09-06T14:40:38.798Z,101267.13
2022-09-06T14:43:06.968Z,101260.03
2022-09-06T14:45:36.121Z,101265.31
2022-09-06T14:48:04.797Z,101255.81
2022-09-06T14:50:32.558Z,101261.19
2022-09-06T14:53:02.256Z,101255.06
2022-09-06T14:55:30.328Z,101257.47
2022-09-06T14:57:59.666Z,101249.69
2022-09-06T15:00:27.513Z,101252.72
2022-09-06T15:02:56.216Z,101241.75
2022-09-06T15:05:24.005Z,101241.69
2022-09-06T15:07:51.733Z,101234.50
2022-09-06T15:10:20.992Z,101242.44
2022-09-06T15:12:48.996Z,101232.50
2022-09-06T15:15:16.661Z,101233.41
2022-09-06T15:17:46.056Z,101229.53
2022-09-06T15:20:13.944Z,101228.19
2022-09-06T15:22:41.717Z,101230.97
2022-09-06T15:25:11.255Z,101220.22
2022-09-06T15:27:39.039Z,101221.47
2022-09-06T15:30:07.159Z,101220.72
2022-09-06T15:32:34.891Z,101214.59
2022-09-06T15:35:04.634Z,101212.34
2022-09-06T15:37:32.814Z,101213.81
2022-09-06T15:40:00.988Z,101210.28
2022-09-06T15:42:29.418Z,101208.66
2022-09-06T15:44:57.455Z,101209.91
2022-09-06T15:47:25.973Z,101205.16
2022-09-06T15:49:54.252Z,101207.50
2022-09-06T15:52:22.231Z,101205.00
2022-09-06T15:55:09.074Z,101209.81
2022-09-06T15:57:37.224Z,101202.22
2022-09-06T16:00:05.771Z,101204.50
2022-09-06T16:02:33.512Z,101199.78
2022-09-06T16:05:01.744Z,101207.09
2022-09-06T16:07:30.063Z,101192.59
2022-09-06T16:09:59.474Z,101193.44
2022-09-06T16:12:28.658Z,101188.44
2022-09-06T16:14:58.537Z,101186.19
2022-09-06T16:17:27.668Z,101185.19
2022-09-06T16:19:55.349Z,101187.09
2022-09-06T16:22:24.618Z,101186.72
2022-09-06T16:24:52.361Z,101182.81
2022-09-06T16:27:20.271Z,101180.56
2022-09-06T16:29:48.131Z,101178.72
2022-09-06T16:32:17.256Z,101176.69
2022-09-06T16:34:46.008Z,101180.44
2022-09-06T16:37:14.346Z,101180.47
2022-09-06T16:39:43.310Z,101177.44
2022-09-06T16:42:12.954Z,101178.09
2022-09-06T16:44:41.139Z,101181.22
2022-09-06T16:47:10.926Z,101176.47
2022-09-06T16:49:41.454Z,101182.91
2022-09-06T16:52:09.173Z,101182.94
2022-09-06T16:54:39.033Z,101182.53
2022-09-06T16:57:06.783Z,101179.28
2022-09-06T16:59:34.703Z,101186.56
2022-09-06T17:02:02.787Z,101192.78
2022-09-06T17:04:30.758Z,101187.44
2022-09-06T17:06:58.501Z,101190.97
2022-09-06T17:09:26.410Z,101190.59
2022-09-06T17:11:54.117Z,101195.16
2022-09-06T17:14:21.913Z,101187.13
2022-09-06T17:17:05.177Z,101187.72
2022-09-06T17:19:41.534Z,101185.69
2022-09-06T17:22:10.585Z,101193.78
2022-09-06T17:24:40.676Z,101190.63
2022-09-06T17:27:09.216Z,101184.44
2022-09-06T17:29:37.287Z,101194.81
2022-09-06T17:32:10.286Z,101192.13
2022-09-06T17:34:39.981Z,101186.53
2022-09-06T17:37:07.760Z,101195.03
2022-09-06T17:39:35.666Z,101195.63
2022-09-06T17:42:04.086Z,101202.66
2022-09-06T17:44:31.993Z,101210.56
2022-09-06T17:47:12.633Z,101210.34
2022-09-06T17:49:45.450Z,101202.69
2022-09-06T17:52:15.257Z,101204.13
2022-09-06T17:54:44.877Z,101214.25
2022-09-06T17:57:13.022Z,101214.69
2022-09-06T17:59:40.818Z,101212.19
2022-09-06T18:02:08.998Z,101220.47
2022-09-06T18:04:45.546Z,101217.38
2022-09-06T18:07:50.848Z,101213.81
2022-09-06T18:10:18.905Z,101208.84
2022-09-06T18:12:46.597Z,101216.91
2022-09-06T18:15:14.831Z,101212.59
2022-09-06T18:17:42.493Z,101207.16
2022-09-06T18:20:10.715Z,101218.31
2022-09-06T18:22:40.844Z,101212.75
2022-09-06T18:25:17.464Z,101209.81
2022-09-06T18:27:48.303Z,101220.31
2022-09-06T18:30:16.507Z,101212.88
2022-09-06T18:32:44.932Z,101221.34
2022-09-06T18:35:16.057Z,101218.44
2022-09-06T18:37:44.072Z,101222.13
2022-09-06T18:40:20.195Z,101222.09
2022-09-06T18:42:55.016Z,101222.50
2022-09-06T18:45:29.697Z,101220.22
2022-09-06T18:48:05.264Z,101216.88
2022-09-06T18:50:46.067Z,101222.25
2022-09-06T18:53:27.379Z,101220.19
2022-09-06T18:56:04.547Z,101220.16
2022-09-06T18:59:04.807Z,101224.06
2022-09-06T19:01:42.881Z,101217.25
2022-09-06T19:04:16.651Z,101220.31
2022-09-06T19:07:00.880Z,101219.91
2022-09-06T19:09:35.053Z,101214.06
2022-09-06T19:12:08.273Z,101214.72
2022-09-06T19:14:43.439Z,101216.75
2022-09-06T19:17:20.345Z,101212.81
2022-09-06T19:20:00.271Z,101209.50
2022-09-06T19:22:35.039Z,101210.09
2022-09-06T19:25:07.037Z,101212.38
2022-09-06T19:27:51.294Z,101216.44
2022-09-06T19:30:26.354Z,101217.28
2022-09-06T19:33:00.975Z,101211.88
2022-09-06T19:36:07.627Z,101220.50
2022-09-06T19:39:02.591Z,101211.38
2022-09-06T19:41:50.344Z,101212.78
2022-09-06T19:44:27.580Z,101210.69
2022-09-06T19:46:59.103Z,101211.69
2022-09-06T19:49:32.991Z,101211.91
2022-09-06T19:52:13.049Z,101206.69
2022-09-06T19:54:56.178Z,101208.94
2022-09-06T19:57:34.459Z,101204.78
2022-09-06T20:00:18.733Z,101207.03
2022-09-06T20:02:46.635Z,101210.28
2022-09-06T20:05:23.218Z,101206.78
2022-09-06T20:07:51.608Z,101205.13
2022-09-06T20:10:23.533Z,101205.31
2022-09-06T20:12:54.597Z,101205.69
2022-09-06T20:15:31.737Z,101203.22
2022-09-06T20:18:02.713Z,101204.59
2022-09-06T20:20:32.987Z,101189.34
2022-09-06T20:25:47.720Z,101187.22
2022-09-06T20:28:28.330Z,101190.28
2022-09-06T20:31:11.418Z,101201.38
2022-09-06T20:33:39.858Z,101205.44
2022-09-06T20:36:10.004Z,101205.84
2022-09-06T20:38:43.302Z,101207.88
2022-09-06T20:41:13.596Z,101200.22
2022-09-06T20:43:41.845Z,101197.47
2022-09-06T20:46:18.808Z,101187.13
2022-09-06T20:48:47.088Z,101191.22
2022-09-06T20:51:20.692Z,101198.44
2022-09-06T20:53:54.149Z,101192.63
2022-09-06T20:56:26.159Z,101192.16
2022-09-06T20:58:58.308Z,101188.00
2022-09-06T21:01:33.747Z,101185.91
2022-09-06T21:04:04.408Z,101190.97
2022-09-06T21:06:36.537Z,101186.38
2022-09-06T21:09:14.861Z,101189.44
2022-09-06T21:11:43.503Z,101185.47
2022-09-06T21:14:12.032Z,101186.88
2022-09-06T21:17:06.325Z,101178.19
2022-09-06T21:19:59.148Z,101190.84
2022-09-06T21:22:29.588Z,101195.75
2022-09-06T21:24:57.647Z,101187.72
2022-09-06T21:27:26.369Z,101187.91
2022-09-06T21:29:54.285Z,101186.63
2022-09-06T21:32:21.941Z,101183.50
2022-09-06T21:34:49.756Z,101188.03
2022-09-06T21:37:17.925Z,101184.06
2022-09-06T21:39:45.776Z,101188.75
2022-09-06T21:42:13.527Z,101180.91
2022-09-06T21:44:41.320Z,101173.25
2022-09-06T21:47:09.548Z,101171.78
2022-09-06T21:49:39.145Z,101176.44
2022-09-06T21:52:07.204Z,101170.59
2022-09-06T21:54:35.126Z,101176.88
2022-09-06T21:57:03.056Z,101171.91
2022-09-06T21:59:30.662Z,101174.75
2022-09-06T22:01:59.258Z,101173.72
2022-09-06T22:04:27.379Z,101176.16
2022-09-06T22:06:55.197Z,101179.19
2022-09-06T22:09:23.299Z,101182.22
2022-09-06T22:11:52.006Z,101183.41
2022-09-06T22:14:19.909Z,101179.44
2022-09-06T22:16:48.580Z,101170.78
2022-09-06T22:19:16.450Z,101171.16
2022-09-06T22:21:47.047Z,101178.72
2022-09-06T22:24:16.589Z,101170.88
2022-09-06T22:26:44.358Z,101178.44
2022-09-06T22:29:13.802Z,101177.75
2022-09-06T22:31:41.870Z,101171.75
2022-09-06T22:34:10.617Z,101167.78
2022-09-06T22:36:38.898Z,101173.66
2022-09-06T22:39:06.988Z,101179.72
2022-09-06T22:41:34.727Z,101174.56
2022-09-06T22:44:03.756Z,101176.22
2022-09-06T22:46:32.427Z,101182.59
2022-09-06T22:49:00.722Z,101176.41
2022-09-06T22:51:28.662Z,101179.47
2022-09-06T22:53:57.243Z,101181.47
2022-09-06T22:56:25.245Z,101179.97
2022-09-06T22:58:53.089Z,101173.50
2022-09-06T23:01:21.055Z,101177.38
2022-09-06T23:03:50.943Z,101169.91
2022-09-06T23:06:18.851Z,101169.25
2022-09-06T23:08:46.695Z,101169.44
2022-09-06T23:11:19.039Z,101164.09
2022-09-06T23:13:47.675Z,101170.78
2022-09-06T23:16:19.334Z,101171.97
2022-09-06T23:18:48.838Z,101176.69
2022-09-06T23:21:20.066Z,101165.50
2022-09-06T23:23:49.394Z,101168.25
2022-09-06T23:26:19.777Z,101172.28
2022-09-06T23:28:51.483Z,101170.44
2022-09-06T23:31:19.600Z,101161.13
2022-09-06T23:33:47.693Z,101166.66
2022-09-06T23:36:15.559Z,101164.97
2022-09-06T23:38:44.363Z,101164.16
2022-09-06T23:41:13.617Z,101160.81
2022-09-06T23:43:42.926Z,101156.84
2022-09-06T23:46:13.128Z,101159.22
2022-09-06T23:48:42.029Z,101159.56
2022-09-06T23:51:10.611Z,101154.78
2022-09-06T23:53:39.695Z,101156.13
2022-09-06T23:56:08.400Z,101152.63
2022-09-06T23:58:36.972Z,101147.66
